createdAt,value
2022-10-12T00:00:17.840Z,8.2
2022-10-12T00:02:19.176Z,8.13
2022-10-12T00:04:20.751Z,8.1
2022-10-12T00:06:22.263Z,8.04
2022-10-12T00:08:23.364Z,7.9
2022-10-12T00:10:24.409Z,7.86
2022-10-12T00:12:25.774Z,8.01
2022-10-12T00:14:26.769Z,7.93
2022-10-12T00:16:28.564Z,8.05
2022-10-12T00:18:29.619Z,8.04
2022-10-12T00:20:31.458Z,7.93
2022-10-12T00:22:32.778Z,7.8
2022-10-12T00:24:34.461Z,7.78
2022-10-12T00:26:35.685Z,7.76
2022-10-12T00:28:37.371Z,7.76
2022-10-12T00:30:38.708Z,8.04
2022-10-12T00:32:39.724Z,8.15
2022-10-12T00:34:41.377Z,8.07
2022-10-12T00:36:43.109Z,8.06
2022-10-12T00:38:45.053Z,7.95
2022-10-12T00:40:46.653Z,7.54
2022-10-12T00:42:48.647Z,7.45
2022-10-12T00:44:50.197Z,7.52
2022-10-12T00:46:51.782Z,7.47
2022-10-12T00:48:53.648Z,7.43
2022-10-12T00:50:55.069Z,7.51
2022-10-12T00:54:58.025Z,7.37
2022-10-12T00:56:59.155Z,7.34
2022-10-12T00:59:00.530Z,7.35
2022-10-12T01:01:01.722Z,7.28
2022-10-12T01:03:02.878Z,7.21
2022-10-12T01:05:04.055Z,7.3
2022-10-12T01:07:05.419Z,7.25
2022-10-12T01:09:07.018Z,7.23
2022-10-12T01:11:08.188Z,7.18
2022-10-12T01:13:09.496Z,7.33
2022-10-12T01:15:10.837Z,7.45
2022-10-12T01:17:11.860Z,7.42
2022-10-12T01:19:12.828Z,7.23
2022-10-12T01:21:14.693Z,7.11
2022-10-12T01:23:16.342Z,7.12
2022-10-12T01:25:18.213Z,7.13
2022-10-12T01:27:19.782Z,7.14
2022-10-12T01:29:21.433Z,7.11
2022-10-12T01:31:22.717Z,7.07
2022-10-12T01:33:24.201Z,7.22
2022-10-12T01:35:25.505Z,7.09
2022-10-12T01:37:27.292Z,6.95
2022-10-12T01:39:29.018Z,6.88
2022-10-12T01:41:30.083Z,6.9
2022-10-12T01:43:31.133Z,7
2022-10-12T01:45:32.243Z,7.09
2022-10-12T01:47:34.078Z,7.06
2022-10-12T01:49:35.726Z,6.98
2022-10-12T01:51:36.819Z,6.79
2022-10-12T01:53:38.438Z,6.82
2022-10-12T01:55:40.129Z,6.8
2022-10-12T01:57:41.743Z,6.82
2022-10-12T01:59:42.813Z,6.89
2022-10-12T02:01:44.761Z,6.98
2022-10-12T02:03:46.555Z,6.82
2022-10-12T02:05:47.520Z,6.72
2022-10-12T02:07:49.337Z,6.75
2022-10-12T02:09:50.812Z,6.78
2022-10-12T02:11:52.216Z,6.85
2022-10-12T02:13:53.481Z,6.82
2022-10-12T02:15:54.661Z,6.82
2022-10-12T02:17:56.103Z,6.78
2022-10-12T02:19:57.376Z,6.79
2022-10-12T02:21:58.766Z,6.8
2022-10-12T02:23:59.846Z,6.82
2022-10-12T02:26:01.327Z,6.87
2022-10-12T02:28:03.077Z,6.94
2022-10-12T02:30:04.608Z,7
2022-10-12T02:32:05.862Z,7.03
2022-10-12T02:34:07.129Z,7.01
2022-10-12T02:36:08.819Z,7.03
2022-10-12T02:38:10.656Z,7.03
2022-10-12T02:40:12.481Z,7.01
2022-10-12T02:42:13.756Z,6.88
2022-10-12T02:44:15.484Z,6.86
2022-10-12T02:46:16.758Z,6.84
2022-10-12T02:48:18.658Z,6.86
2022-10-12T02:50:19.730Z,6.84
2022-10-12T02:52:21.377Z,6.88
2022-10-12T02:54:22.451Z,6.91
2022-10-12T02:56:24.256Z,6.99
2022-10-12T02:58:25.584Z,6.98
2022-10-12T03:00:26.858Z,7.06
2022-10-12T03:02:28.194Z,7.03
2022-10-12T03:04:29.622Z,7.04
2022-10-12T03:06:31.217Z,7.03
2022-10-12T03:08:33.122Z,7.06
2022-10-12T03:10:34.471Z,7.11
2022-10-12T03:12:36.284Z,7.09
2022-10-12T03:14:38.200Z,7.09
2022-10-12T03:18:40.834Z,7.05
2022-10-12T03:20:42.113Z,7.01
2022-10-12T03:21:34.024Z,7.04
2022-10-12T03:23:35.680Z,6.99
2022-10-12T03:25:36.928Z,6.92
2022-10-12T03:27:38.999Z,6.88
2022-10-12T03:29:40.817Z,6.82
2022-10-12T03:31:42.802Z,6.78
2022-10-12T03:33:44.253Z,6.7
2022-10-12T03:35:46.174Z,6.7
2022-10-12T03:37:48.052Z,6.64
2022-10-12T03:39:49.913Z,6.52
2022-10-12T03:41:51.237Z,6.41
2022-10-12T03:43:53.139Z,6.43
2022-10-12T03:45:55.064Z,6.4
2022-10-12T03:47:58.173Z,6.33
2022-10-12T03:49:57.819Z,6.43
2022-10-12T03:51:58.887Z,6.36
2022-10-12T03:54:00.640Z,6.33
2022-10-12T03:56:01.996Z,6.33
2022-10-12T03:58:03.402Z,6.28
2022-10-12T04:00:04.454Z,6.3
2022-10-12T04:02:05.574Z,6.37
2022-10-12T04:04:07.171Z,6.35
2022-10-12T04:06:09.015Z,6.43
2022-10-12T04:08:10.875Z,6.44
2022-10-12T04:10:12.787Z,6.46
2022-10-12T04:12:14.298Z,6.55
2022-10-12T04:14:15.570Z,6.57
2022-10-12T04:16:16.711Z,6.63
2022-10-12T04:18:17.935Z,6.65
2022-10-12T04:20:19.077Z,6.62
2022-10-12T04:22:20.172Z,6.63
2022-10-12T04:24:21.919Z,6.66
2022-10-12T04:26:23.232Z,6.59
2022-10-12T04:28:25.109Z,6.64
2022-10-12T04:30:26.620Z,6.64
2022-10-12T04:32:28.461Z,6.6
2022-10-12T04:34:30.026Z,6.52
2022-10-12T04:36:31.002Z,6.48
2022-10-12T04:38:32.671Z,6.47
2022-10-12T04:40:34.198Z,6.42
2022-10-12T04:42:35.531Z,6.44
2022-10-12T04:44:37.006Z,6.44
2022-10-12T04:46:38.215Z,6.44
2022-10-12T04:48:40.167Z,6.29
2022-10-12T04:50:41.970Z,6.2
2022-10-12T04:52:43.911Z,6.19
2022-10-12T04:54:45.117Z,6.19
2022-10-12T04:56:48.036Z,6.11
2022-10-12T04:58:47.874Z,6.24
2022-10-12T05:00:49.533Z,6.31
2022-10-12T05:02:51.502Z,6.3
2022-10-12T05:04:52.825Z,6.27
2022-10-12T05:06:54.245Z,6.26
2022-10-12T05:08:55.600Z,6.3
2022-10-12T05:10:56.926Z,6.35
2022-10-12T05:12:58.255Z,6.34
2022-10-12T05:14:59.311Z,6.38
2022-10-12T05:17:00.449Z,6.4
2022-10-12T05:19:02.002Z,6.41
2022-10-12T05:21:03.832Z,6.43
2022-10-12T05:23:05.652Z,6.43
2022-10-12T05:25:06.832Z,6.45
2022-10-12T05:27:08.472Z,6.48
2022-10-12T05:29:09.763Z,6.51
2022-10-12T05:31:11.571Z,6.47
2022-10-12T05:33:13.423Z,6.51
2022-10-12T05:35:14.545Z,6.51
2022-10-12T05:37:16.466Z,6.5
2022-10-12T05:39:18.150Z,6.52
2022-10-12T05:41:19.697Z,6.52
2022-10-12T05:43:21.244Z,6.56
2022-10-12T05:45:22.756Z,6.59
2022-10-12T05:47:24.388Z,6.6
2022-10-12T05:49:26.231Z,6.59
2022-10-12T05:53:29.314Z,6.64
2022-10-12T05:55:30.672Z,6.66
2022-10-12T05:57:32.539Z,6.62
2022-10-12T05:59:33.532Z,6.58
2022-10-12T06:01:35.513Z,6.58
2022-10-12T06:03:37.214Z,6.62
2022-10-12T06:05:38.590Z,6.64
2022-10-12T06:07:40.235Z,6.68
2022-10-12T06:09:41.805Z,6.74
2022-10-12T06:11:42.798Z,6.8
2022-10-12T06:13:44.545Z,6.83
2022-10-12T06:15:45.719Z,6.83
2022-10-12T06:17:47.664Z,6.88
2022-10-12T06:19:49.114Z,6.83
2022-10-12T06:21:50.855Z,6.86
2022-10-12T06:23:51.933Z,6.97
2022-10-12T06:25:53.514Z,7.03
2022-10-12T06:27:54.919Z,6.98
2022-10-12T06:29:56.199Z,6.92
2022-10-12T06:31:57.153Z,7.01
2022-10-12T06:35:59.619Z,6.92
2022-10-12T06:38:01.527Z,6.88
2022-10-12T06:40:02.658Z,6.91
2022-10-12T06:42:04.033Z,6.91
2022-10-12T06:44:05.188Z,6.96
2022-10-12T06:46:07.092Z,6.94
2022-10-12T06:48:09.012Z,6.96
2022-10-12T06:50:10.557Z,7.01
2022-10-12T06:52:11.566Z,7.04
2022-10-12T06:54:12.875Z,7.1
2022-10-12T06:56:14.295Z,7.16
2022-10-12T06:58:16.248Z,7.21
2022-10-12T07:00:17.986Z,7.25
2022-10-12T07:02:19.785Z,7.33
2022-10-12T07:04:21.035Z,7.4
2022-10-12T07:06:22.547Z,7.51
2022-10-12T07:08:24.024Z,7.64
2022-10-12T07:10:25.944Z,7.78
2022-10-12T07:12:27.277Z,7.76
2022-10-12T07:14:28.908Z,7.81
2022-10-12T07:16:30.087Z,7.79
2022-10-12T07:18:32.006Z,7.97
2022-10-12T07:20:33.317Z,7.94
2022-10-12T07:22:34.947Z,8.17
2022-10-12T07:24:35.960Z,8.27
2022-10-12T07:26:37.460Z,8.21
2022-10-12T07:28:38.939Z,8.27
2022-10-12T07:30:40.701Z,8.33
2022-10-12T07:32:42.207Z,8.52
2022-10-12T07:34:43.202Z,8.5
2022-10-12T07:36:58.426Z,8.37
2022-10-12T07:38:45.944Z,8.37
2022-10-12T07:40:47.782Z,8.53
2022-10-12T07:43:11.810Z,8.53
2022-10-12T07:44:50.649Z,8.63
2022-10-12T07:46:52.495Z,8.62
2022-10-12T07:48:53.799Z,8.77
2022-10-12T07:50:55.525Z,8.83
2022-10-12T07:52:57.391Z,8.97
2022-10-12T07:57:00.176Z,8.79
2022-10-12T07:59:01.580Z,9.01
2022-10-12T08:01:02.632Z,8.92
2022-10-12T08:03:03.918Z,8.99
2022-10-12T08:05:05.423Z,9.35
2022-10-12T08:07:06.879Z,9.51
2022-10-12T08:09:08.217Z,9.73
2022-10-12T08:11:09.625Z,9.72
2022-10-12T08:13:10.742Z,10.05
2022-10-12T08:15:11.870Z,10.15
2022-10-12T08:17:13.749Z,10.56
2022-10-12T08:19:14.865Z,10.88
2022-10-12T08:21:15.813Z,10.73
2022-10-12T08:23:17.931Z,10.78
2022-10-12T08:25:18.991Z,11.24
2022-10-12T08:27:20.326Z,11.22
2022-10-12T08:29:21.954Z,11.06
2022-10-12T08:31:23.342Z,11.25
2022-10-12T08:33:24.975Z,11.13
2022-10-12T08:35:26.598Z,11.6
2022-10-12T08:37:27.681Z,11.71
2022-10-12T08:39:29.223Z,11.44
2022-10-12T08:41:30.468Z,12.07
2022-10-12T08:43:31.425Z,12.24
2022-10-12T08:45:32.930Z,12.35
2022-10-12T08:47:33.903Z,12.18
2022-10-12T08:49:36.203Z,12.16
2022-10-12T08:51:37.978Z,11.73
2022-10-12T08:53:39.391Z,12.45
2022-10-12T08:55:41.138Z,12.71
2022-10-12T08:57:46.297Z,13.02
2022-10-12T08:59:44.655Z,12.83
2022-10-12T09:01:45.636Z,12.7
2022-10-12T09:03:46.780Z,13.02
2022-10-12T09:05:47.717Z,13.23
2022-10-12T09:07:48.811Z,13.42
2022-10-12T09:09:49.685Z,13.18
2022-10-12T09:11:51.239Z,13.19
2022-10-12T09:13:52.242Z,13.11
2022-10-12T09:15:53.922Z,13.02
2022-10-12T09:17:55.007Z,13.27
2022-10-12T09:19:56.279Z,12.87
2022-10-12T09:21:57.550Z,12.93
2022-10-12T09:23:58.953Z,13.07
2022-10-12T09:26:00.009Z,13.07
2022-10-12T09:28:01.702Z,13.43
2022-10-12T09:30:02.832Z,13.32
2022-10-12T09:32:04.306Z,13.11
2022-10-12T09:34:05.710Z,13.79
2022-10-12T09:36:06.613Z,14.08
2022-10-12T09:38:08.186Z,14.19
2022-10-12T09:42:10.505Z,14.58
2022-10-12T09:44:11.536Z,13.95
2022-10-12T09:46:12.390Z,14.5
2022-10-12T09:48:13.238Z,14.73
2022-10-12T09:50:14.549Z,14.53
2022-10-12T09:52:16.002Z,14.61
2022-10-12T09:54:17.655Z,14.91
2022-10-12T09:56:19.022Z,15.16
2022-10-12T09:58:20.792Z,14.78
2022-10-12T10:00:21.896Z,15.13
2022-10-12T10:02:23.684Z,15.2
2022-10-12T10:04:24.959Z,15.36
2022-10-12T10:06:26.069Z,15.61
2022-10-12T10:09:11.261Z,16.09
2022-10-12T10:11:12.795Z,15.86
2022-10-12T10:13:14.771Z,16
2022-10-12T10:15:15.888Z,16.17
2022-10-12T10:17:17.791Z,15.65
2022-10-12T10:19:18.655Z,15.66
2022-10-12T10:21:19.738Z,15.77
2022-10-12T10:23:21.346Z,16.01
2022-10-12T10:25:22.830Z,16
2022-10-12T10:27:24.206Z,15.63
2022-10-12T10:29:25.282Z,15.81
2022-10-12T10:31:26.737Z,16.09
2022-10-12T10:33:27.934Z,16.39
2022-10-12T10:35:28.839Z,16.5
2022-10-12T10:37:29.798Z,16.13
2022-10-12T10:39:31.069Z,16.26
2022-10-12T10:41:32.220Z,15.67
2022-10-12T10:43:33.912Z,15.3
2022-10-12T10:45:35.208Z,15.12
2022-10-12T10:47:36.019Z,14.89
2022-10-12T10:49:37.474Z,14.64
2022-10-12T10:51:38.379Z,14.72
2022-10-12T10:53:39.928Z,14.7
2022-10-12T10:55:41.526Z,14.5
2022-10-12T10:57:43.197Z,14.38
2022-10-12T10:59:44.543Z,14.37
2022-10-12T11:01:46.449Z,14.32
2022-10-12T11:03:48.489Z,14.44
2022-10-12T11:05:48.784Z,14.62
2022-10-12T11:07:49.765Z,14.77
2022-10-12T11:09:50.972Z,14.74
2022-10-12T11:11:51.973Z,14.72
2022-10-12T11:13:53.795Z,14.92
2022-10-12T11:17:56.322Z,15.19
2022-10-12T11:19:57.508Z,15.36
2022-10-12T11:21:58.996Z,15.44
2022-10-12T11:24:00.521Z,15.74
2022-10-12T11:26:01.498Z,15.99
2022-10-12T11:28:02.662Z,16.41
2022-10-12T11:30:09.096Z,16.62
2022-10-12T11:32:04.754Z,16.47
2022-10-12T11:34:08.990Z,16.55
2022-10-12T11:36:07.639Z,16.47
2022-10-12T11:38:12.888Z,16.77
2022-10-12T11:40:10.936Z,16.18
2022-10-12T11:42:21.665Z,16.46
2022-10-12T11:44:13.855Z,16.82
2022-10-12T11:46:15.636Z,17.05
2022-10-12T11:48:16.597Z,17.02
2022-10-12T11:50:17.627Z,17.32
2022-10-12T11:52:19.346Z,17.68
2022-10-12T11:54:20.877Z,17.59
2022-10-12T11:56:22.083Z,17.43
2022-10-12T11:58:31.805Z,17.38
2022-10-12T12:00:25.161Z,17.18
2022-10-12T12:02:26.454Z,16.89
2022-10-12T12:04:42.041Z,16.9
2022-10-12T12:06:29.529Z,16.85
2022-10-12T12:08:31.122Z,16.77
2022-10-12T12:10:32.711Z,16.75
2022-10-12T12:12:34.334Z,16.85
2022-10-12T12:14:35.747Z,17.06
2022-10-12T12:16:36.736Z,17.19
2022-10-12T12:18:38.052Z,17.66
2022-10-12T12:20:39.771Z,17.33
2022-10-12T12:22:41.410Z,16.93
2022-10-12T12:24:42.404Z,17.33
2022-10-12T12:26:43.922Z,17.45
2022-10-12T12:28:45.503Z,17.48
2022-10-12T12:30:47.211Z,17.89
2022-10-12T12:32:48.774Z,18.15
2022-10-12T12:34:49.695Z,17.85
2022-10-12T12:36:50.701Z,18.15
2022-10-12T12:38:52.019Z,17.99
2022-10-12T12:40:53.023Z,17.97
2022-10-12T12:42:54.309Z,17.99
2022-10-12T12:44:55.146Z,17.98
2022-10-12T12:46:56.191Z,18.17
2022-10-12T12:48:57.061Z,17.84
2022-10-12T12:50:58.158Z,17.81
2022-10-12T12:52:59.479Z,17.38
2022-10-12T12:55:00.222Z,17.26
2022-10-12T12:59:03.040Z,17.03
2022-10-12T13:01:04.039Z,17.04
2022-10-12T13:03:05.129Z,16.95
2022-10-12T13:05:06.211Z,17.17
2022-10-12T13:07:07.659Z,17.78
2022-10-12T13:09:14.493Z,17.97
2022-10-12T13:11:10.684Z,18.28
2022-10-12T13:13:11.786Z,18.08
2022-10-12T13:15:12.671Z,18.07
2022-10-12T13:17:33.192Z,17.65
2022-10-12T13:19:18.705Z,17.3
2022-10-12T13:21:16.947Z,16.83
2022-10-12T13:23:18.354Z,16.69
2022-10-12T13:25:19.472Z,16.63
2022-10-12T13:27:21.163Z,16.72
2022-10-12T13:29:22.482Z,16.61
2022-10-12T13:31:24.198Z,16.48
2022-10-12T13:33:28.773Z,16.48
2022-10-12T13:35:27.194Z,16.33
2022-10-12T13:37:28.629Z,16.15
2022-10-12T13:39:29.738Z,16.11
2022-10-12T13:41:30.792Z,16.16
2022-10-12T13:43:32.091Z,16.23
2022-10-12T13:45:33.764Z,16.21
2022-10-12T13:47:35.435Z,16.34
2022-10-12T13:49:36.796Z,16.34
2022-10-12T13:51:38.292Z,16.38
2022-10-12T13:53:40.005Z,16.34
2022-10-12T13:55:41.503Z,16.52
2022-10-12T13:57:43.157Z,16.75
2022-10-12T13:59:44.360Z,16.79
2022-10-12T14:01:46.051Z,16.79
2022-10-12T14:03:47.493Z,16.71
2022-10-12T14:05:51.490Z,16.68
2022-10-12T14:07:50.356Z,16.73
2022-10-12T14:09:51.906Z,16.79
2022-10-12T14:11:52.902Z,17
2022-10-12T14:13:54.174Z,17.07
2022-10-12T14:15:55.926Z,17.12
2022-10-12T14:17:56.921Z,16.94
2022-10-12T14:19:57.994Z,16.98
2022-10-12T14:21:59.573Z,17
2022-10-12T14:24:00.505Z,17.14
2022-10-12T14:26:01.514Z,17.09
2022-10-12T14:28:02.571Z,17.17
2022-10-12T14:30:04.029Z,17.09
2022-10-12T14:32:05.173Z,17.09
2022-10-12T14:34:06.765Z,16.86
2022-10-12T14:36:08.499Z,16.8
2022-10-12T14:38:09.357Z,16.82
2022-10-12T14:40:10.536Z,16.82
2022-10-12T14:42:11.726Z,16.78
2022-10-12T14:44:12.692Z,16.7
2022-10-12T14:46:14.224Z,16.69
2022-10-12T14:48:15.948Z,16.7
2022-10-12T14:50:17.178Z,16.74
2022-10-12T14:52:18.773Z,16.72
2022-10-12T14:54:19.885Z,16.69
2022-10-12T14:56:21.342Z,16.78
2022-10-12T14:58:23.120Z,16.98
2022-10-12T15:00:24.372Z,17.15
2022-10-12T15:02:25.477Z,17.31
2022-10-12T15:04:27.134Z,17.3
2022-10-12T15:06:28.302Z,17.17
2022-10-12T15:08:29.886Z,17.25
2022-10-12T15:10:31.073Z,17.25
2022-10-12T15:12:32.349Z,17.06
2022-10-12T15:14:33.216Z,17.07
2022-10-12T15:16:34.615Z,16.9
2022-10-12T15:18:35.847Z,16.81
2022-10-12T15:22:38.302Z,16.65
2022-10-12T15:24:39.704Z,16.6
2022-10-12T15:26:42.394Z,16.42
2022-10-12T15:28:41.868Z,16.47
2022-10-12T15:30:57.958Z,16.47
2022-10-12T15:32:44.361Z,16.41
2022-10-12T15:34:46.087Z,16.32
2022-10-12T15:36:47.576Z,16.21
2022-10-12T15:38:49.334Z,16.13
2022-10-12T15:40:51.017Z,16.08
2022-10-12T15:42:51.891Z,16.04
2022-10-12T15:44:53.707Z,15.93
2022-10-12T15:46:55.172Z,15.8
2022-10-12T15:48:56.916Z,15.76
2022-10-12T15:50:58.283Z,15.58
2022-10-12T15:52:59.693Z,15.7
2022-10-12T15:55:00.831Z,15.58
2022-10-12T15:57:01.729Z,15.49
2022-10-12T15:59:02.802Z,15.31
2022-10-12T16:01:04.489Z,15.25
2022-10-12T16:03:06.228Z,15.29
2022-10-12T16:05:07.208Z,15.22
2022-10-12T16:07:08.611Z,15.14
2022-10-12T16:09:10.261Z,15.03
2022-10-12T16:11:11.633Z,14.98
2022-10-12T16:13:12.686Z,14.92
2022-10-12T16:15:13.925Z,14.81
2022-10-12T16:17:15.450Z,14.73
2022-10-12T16:19:16.679Z,14.62
2022-10-12T16:21:17.967Z,14.56
2022-10-12T16:23:18.974Z,14.44
2022-10-12T16:25:20.744Z,14.33
2022-10-12T16:27:22.070Z,14.18
2022-10-12T16:29:23.814Z,14.13
2022-10-12T16:31:25.353Z,14.02
2022-10-12T16:33:26.675Z,13.86
2022-10-12T16:35:28.356Z,13.77
2022-10-12T16:37:29.958Z,13.6
2022-10-12T16:39:31.112Z,13.5
2022-10-12T16:41:33.887Z,13.38
2022-10-12T16:43:33.322Z,13.34
2022-10-12T16:45:34.224Z,13.31
2022-10-12T16:47:38.782Z,13.33
2022-10-12T16:49:36.391Z,13.26
2022-10-12T16:51:38.271Z,13.14
2022-10-12T16:52:22.063Z,13.08
2022-10-12T16:54:23.391Z,12.92
2022-10-12T16:56:25.197Z,12.85
2022-10-12T16:58:26.915Z,12.79
2022-10-12T17:00:28.573Z,12.68
2022-10-12T17:02:30.300Z,12.62
2022-10-12T17:04:32.123Z,12.55
2022-10-12T17:06:34.029Z,12.49
2022-10-12T17:08:35.881Z,12.42
2022-10-12T17:10:37.429Z,12.38
2022-10-12T17:12:39.050Z,12.32
2022-10-12T17:14:40.369Z,12.29
2022-10-12T17:16:41.480Z,12.26
2022-10-12T17:18:42.671Z,12.2
2022-10-12T17:20:43.677Z,12.22
2022-10-12T17:22:45.111Z,12.21
2022-10-12T17:24:46.750Z,12.12
2022-10-12T17:26:48.484Z,12.19
2022-10-12T17:28:50.326Z,12.15
2022-10-12T17:30:52.018Z,12.09
2022-10-12T17:32:53.206Z,12.09
2022-10-12T17:34:54.183Z,12.1
2022-10-12T17:36:55.480Z,12.11
2022-10-12T17:40:57.877Z,12.2
2022-10-12T17:42:58.975Z,12.2
2022-10-12T17:45:00.782Z,12.08
2022-10-12T17:47:01.887Z,12.1
2022-10-12T17:49:03.611Z,12.08
2022-10-12T17:51:04.643Z,12.02
2022-10-12T17:53:05.837Z,12.09
2022-10-12T17:55:07.641Z,12.04
2022-10-12T17:57:08.220Z,12.03
2022-10-12T17:59:09.903Z,11.98
2022-10-12T18:01:11.047Z,11.88
2022-10-12T18:03:12.321Z,11.82
2022-10-12T18:05:13.842Z,11.8
2022-10-12T18:07:16.058Z,11.87
2022-10-12T18:09:17.207Z,11.92
2022-10-12T18:11:18.547Z,12
2022-10-12T18:13:19.774Z,12.1
2022-10-12T18:15:20.985Z,12.07
2022-10-12T18:17:22.365Z,11.97
2022-10-12T18:19:23.832Z,11.89
2022-10-12T18:21:25.641Z,11.83
2022-10-12T18:23:26.991Z,11.82
2022-10-12T18:25:28.697Z,11.77
2022-10-12T18:27:30.435Z,11.8
2022-10-12T18:29:31.724Z,11.81
2022-10-12T18:31:33.452Z,11.88
2022-10-12T18:33:34.703Z,11.86
2022-10-12T18:35:36.369Z,11.79
2022-10-12T18:37:37.954Z,11.74
2022-10-12T18:39:39.741Z,11.65
2022-10-12T18:41:41.577Z,11.64
2022-10-12T18:43:42.795Z,11.56
2022-10-12T18:45:44.626Z,11.54
2022-10-12T18:47:45.929Z,11.53
2022-10-12T18:49:47.217Z,11.49
2022-10-12T18:51:48.644Z,11.44
2022-10-12T18:53:50.381Z,11.47
2022-10-12T18:55:51.357Z,11.4
2022-10-12T18:57:52.688Z,11.29
2022-10-12T18:59:54.398Z,11.33
2022-10-12T19:01:56.228Z,11.33
2022-10-12T19:03:57.570Z,11.3
2022-10-12T19:05:58.657Z,11.29
2022-10-12T19:07:59.919Z,11.29
2022-10-12T19:10:01.063Z,11.26
2022-10-12T19:12:02.310Z,11.13
2022-10-12T19:14:03.464Z,11.18
2022-10-12T19:16:05.336Z,11.06
2022-10-12T19:18:06.334Z,11.06
2022-10-12T19:20:08.203Z,11.29
2022-10-12T19:22:09.413Z,11.31
2022-10-12T19:24:10.441Z,11.29
2022-10-12T19:26:11.494Z,11.27
2022-10-12T19:28:13.082Z,11.28
2022-10-12T19:30:14.723Z,11.2
2022-10-12T19:32:16.171Z,11.25
2022-10-12T19:34:17.459Z,11.26
2022-10-12T19:36:18.506Z,11.18
2022-10-12T19:38:20.171Z,11.12
2022-10-12T19:40:21.811Z,11.15
2022-10-12T19:42:23.345Z,11.09
2022-10-12T19:44:25.286Z,11.06
2022-10-12T19:46:26.311Z,10.95
2022-10-12T19:48:28.109Z,10.82
2022-10-12T19:50:29.207Z,10.84
2022-10-12T19:52:30.433Z,10.84
2022-10-12T19:54:35.394Z,10.82
2022-10-12T19:56:33.600Z,10.86
2022-10-12T19:58:34.599Z,10.81
2022-10-12T20:00:36.185Z,10.8
2022-10-12T20:04:38.411Z,10.84
2022-10-12T20:06:39.598Z,10.83
2022-10-12T20:08:41.381Z,10.89
2022-10-12T20:10:42.310Z,10.86
2022-10-12T20:12:44.215Z,10.86
2022-10-12T20:14:46.089Z,10.89
2022-10-12T20:16:47.666Z,10.87
2022-10-12T20:18:49.315Z,10.96
2022-10-12T20:20:50.960Z,10.94
2022-10-12T20:22:52.306Z,10.88
2022-10-12T20:24:54.099Z,10.95
2022-10-12T20:26:55.761Z,10.97
2022-10-12T20:28:57.666Z,10.93
2022-10-12T20:30:59.537Z,10.98
2022-10-12T20:33:00.469Z,10.92
2022-10-12T20:35:02.055Z,10.9
2022-10-12T20:37:03.575Z,10.81
2022-10-12T20:39:05.004Z,10.75
2022-10-12T20:41:06.037Z,10.7
2022-10-12T20:43:07.363Z,10.65
2022-10-12T20:45:08.818Z,10.62
2022-10-12T20:47:10.174Z,10.8
2022-10-12T20:49:11.201Z,10.68
2022-10-12T20:51:12.811Z,10.3
2022-10-12T20:53:14.332Z,10.31
2022-10-12T20:55:15.584Z,10.2
2022-10-12T20:57:16.993Z,10.17
2022-10-12T20:59:18.563Z,10.18
2022-10-12T21:01:19.640Z,10.08
2022-10-12T21:03:21.237Z,10.01
2022-10-12T21:05:22.437Z,9.98
2022-10-12T21:07:23.342Z,9.91
2022-10-12T21:09:24.321Z,9.89
2022-10-12T21:11:25.332Z,9.85
2022-10-12T21:13:27.319Z,10.02
2022-10-12T21:15:28.994Z,10.08
2022-10-12T21:17:30.266Z,9.98
2022-10-12T21:19:32.185Z,9.96
2022-10-12T21:21:33.432Z,10
2022-10-12T21:23:34.642Z,9.89
2022-10-12T21:25:35.910Z,9.91
2022-10-12T21:27:37.217Z,9.89
2022-10-12T21:29:38.267Z,9.89
2022-10-12T21:31:39.814Z,9.85
2022-10-12T21:33:41.673Z,9.98
2022-10-12T21:35:43.532Z,9.56
2022-10-12T21:37:45.332Z,9.46
2022-10-12T21:39:49.620Z,9.37
2022-10-12T21:41:48.559Z,9.42
2022-10-12T21:43:49.679Z,9.96
2022-10-12T21:45:50.900Z,9.86
2022-10-12T21:47:52.256Z,9.83
2022-10-12T21:49:53.556Z,9.94
2022-10-12T21:51:55.273Z,9.87
2022-10-12T21:53:57.132Z,9.8
2022-10-12T21:55:58.917Z,9.79
2022-10-12T21:58:00.701Z,9.77
2022-10-12T22:00:02.445Z,9.76
2022-10-12T22:02:03.552Z,9.59
2022-10-12T22:04:04.736Z,9.38
2022-10-12T22:06:05.946Z,9.25
2022-10-12T22:08:07.638Z,9.25
2022-10-12T22:10:09.079Z,9.19
2022-10-12T22:12:10.589Z,9.3
2022-10-12T22:14:11.679Z,9.29
2022-10-12T22:16:13.275Z,9.26
2022-10-12T22:18:14.415Z,9.19
2022-10-12T22:20:16.106Z,9.27
2022-10-12T22:22:17.356Z,9.24
2022-10-12T22:24:18.209Z,9.16
2022-10-12T22:28:21.889Z,9.1
2022-10-12T22:30:23.291Z,9.23
2022-10-12T22:32:25.237Z,9.15
2022-10-12T22:34:26.677Z,9.27
2022-10-12T22:36:27.833Z,9.3
2022-10-12T22:38:29.510Z,9.22
2022-10-12T22:40:31.015Z,9.14
2022-10-12T22:42:32.787Z,9.06
2022-10-12T22:44:34.558Z,9.01
2022-10-12T22:46:35.850Z,8.94
2022-10-12T22:48:37.776Z,8.82
2022-10-12T22:50:38.879Z,8.88
2022-10-12T22:52:40.723Z,8.78
2022-10-12T22:54:42.597Z,8.81
2022-10-12T22:56:44.381Z,8.79
2022-10-12T22:58:46.065Z,8.83
2022-10-12T23:00:47.706Z,8.9
2022-10-12T23:02:49.361Z,8.7
2022-10-12T23:04:50.782Z,8.68
2022-10-12T23:06:51.813Z,8.61
2022-10-12T23:08:53.704Z,8.85
2022-10-12T23:10:55.131Z,8.9
2022-10-12T23:12:56.671Z,8.92
2022-10-12T23:14:58.535Z,8.81
2022-10-12T23:16:59.952Z,8.45
2022-10-12T23:19:01.490Z,8.29
2022-10-12T23:21:03.221Z,8.09
2022-10-12T23:23:04.659Z,8.11
2022-10-12T23:25:05.713Z,8.17
2022-10-12T23:27:07.225Z,8.16
2022-10-12T23:29:08.449Z,8.15
2022-10-12T23:31:09.581Z,8.21
2022-10-12T23:33:11.522Z,8.09
2022-10-12T23:35:13.171Z,8.04
2022-10-12T23:37:14.744Z,7.94
2022-10-12T23:37:58.647Z,7.89
2022-10-12T23:40:00.307Z,7.78
2022-10-12T23:42:02.024Z,7.81
2022-10-12T23:44:03.158Z,8.03
2022-10-12T23:46:04.469Z,8.09
2022-10-12T23:48:06.017Z,8.06
2022-10-12T23:50:07.917Z,7.98
2022-10-12T23:52:09.803Z,7.85
2022-10-12T23:54:10.899Z,7.69
2022-10-12T23:56:12.121Z,7.53
2022-10-12T23:58:13.261Z,7.53
